Time;durP1;ratioP1;P1;durP2;ratioP2;P2;SDS_P1;SDS_P2;PMS_P1;PMS_P2;Temp;Humidity;BMP_temperature;BMP_pressure;BME280_temperature;BME280_humidity;BME280_pressure;Samples;Min_cycle;Max_cycle;Signal;HPM_P1;HPM_P2
2022/08/31 00:04:07;;;;;;;6.27;5.43;;;23.80;74.10;;;-142.21;100.00;112049.66;5051880;28;20284;-75
2022/08/31 00:06:36;;;;;;;6.77;5.37;;;23.80;75.20;;;-142.21;100.00;112049.66;5051230;28;20661;-75
2022/08/31 00:09:06;;;;;;;7.57;5.60;;;23.80;74.70;;;-142.21;100.00;112049.66;5052733;28;20289;-77
2022/08/31 00:11:34;;;;;;;6.60;5.47;;;23.90;75.40;;;-142.21;100.00;112049.66;5051299;28;20229;-78
2022/08/31 00:14:10;;;;;;;6.77;5.47;;;23.90;74.80;;;-142.21;100.00;112049.66;5051575;28;20255;-75
2022/08/31 00:16:40;;;;;;;6.23;5.17;;;23.90;76.60;;;-142.21;100.00;112049.66;5052636;28;20283;-76
2022/08/31 00:19:08;;;;;;;6.87;6.17;;;24.00;76.00;;;-142.21;100.00;112049.66;5051211;28;20698;-76
2022/08/31 00:21:35;;;;;;;6.57;5.40;;;23.90;75.40;;;-142.21;100.00;112049.66;5052478;28;20287;-76
2022/08/31 00:24:03;;;;;;;5.90;5.00;;;24.00;75.90;;;-142.21;100.00;112049.66;5052006;28;20251;-77
2022/08/31 00:26:30;;;;;;;6.10;4.73;;;24.00;75.50;;;-142.21;100.00;112049.66;5052311;28;20204;-77
2022/08/31 00:28:57;;;;;;;5.63;4.80;;;24.00;75.40;;;-142.21;100.00;112049.66;5051505;28;20255;-76
2022/08/31 00:31:26;;;;;;;6.20;5.30;;;23.90;75.00;;;-142.21;100.00;112049.66;5052072;28;20631;-76
2022/08/31 00:33:54;;;;;;;5.90;5.20;;;23.90;75.70;;;-142.21;100.00;112049.66;5051391;28;20225;-75
2022/08/31 00:36:27;;;;;;;5.73;4.87;;;23.90;75.20;;;-142.21;100.00;112049.66;5034373;28;20194;-76
2022/08/31 00:38:55;;;;;;;5.50;4.67;;;23.90;75.20;;;-142.21;100.00;112049.66;5049383;28;20198;-76
2022/08/31 00:41:27;;;;;;;6.17;4.77;;;23.90;74.90;;;-142.21;100.00;112049.66;5052312;28;20225;-75
2022/08/31 00:43:57;;;;;;;5.47;4.80;;;23.90;75.30;;;-142.21;100.00;112049.66;5051815;28;20280;-75
2022/08/31 00:46:29;;;;;;;5.63;4.80;;;23.90;75.40;;;-142.21;100.00;112049.66;5051702;28;20264;-78
2022/08/31 00:49:04;;;;;;;4.73;4.13;;;23.90;75.80;;;-142.21;100.00;112049.66;5051740;28;20638;-75
2022/08/31 00:51:38;;;;;;;4.80;4.27;;;23.80;75.70;;;-142.21;100.00;112049.66;5052086;28;20240;-75
2022/08/31 00:54:09;;;;;;;5.10;4.20;;;23.80;76.30;;;-142.21;100.00;112049.66;5051463;28;20252;-75
2022/08/31 00:56:39;;;;;;;5.23;4.50;;;23.90;76.10;;;-142.21;100.00;112049.66;5051809;28;20200;-76
2022/08/31 00:59:07;;;;;;;4.90;4.40;;;23.90;76.00;;;-142.21;100.00;112049.66;5050726;28;20323;-76
2022/08/31 01:01:35;;;;;;;5.17;4.10;;;24.00;75.80;;;-142.21;100.00;112049.66;5051424;28;20706;-76
2022/08/31 01:04:04;;;;;;;5.87;4.70;;;23.90;76.30;;;-142.21;100.00;112049.66;5051449;28;20252;-76
2022/08/31 01:06:31;;;;;;;6.73;4.57;;;23.90;76.30;;;-142.21;100.00;112049.66;5051254;28;20236;-76
2022/08/31 01:09:02;;;;;;;5.30;4.63;;;23.80;76.00;;;-142.21;100.00;112049.66;5050514;28;20284;-74
2022/08/31 01:11:30;;;;;;;5.10;4.40;;;23.80;76.30;;;-142.21;100.00;112049.66;5051970;28;20288;-75
2022/08/31 01:13:57;;;;;;;5.67;4.97;;;23.80;76.90;;;-142.21;100.00;112049.66;5051115;28;20221;-76
2022/08/31 01:16:33;;;;;;;5.23;4.20;;;23.90;77.20;;;-142.21;100.00;112049.66;5051376;28;20206;-76
2022/08/31 01:19:13;;;;;;;6.00;5.23;;;23.90;77.30;;;-142.21;100.00;112049.66;5051078;28;20280;-76
2022/08/31 01:21:48;;;;;;;5.00;4.50;;;24.00;77.60;;;-142.21;100.00;112049.66;5044606;28;20239;-76
2022/08/31 01:24:19;;;;;;;4.93;4.50;;;24.10;76.80;;;-142.21;100.00;112049.66;5050978;28;20275;-76
2022/08/31 01:26:47;;;;;;;4.40;4.00;;;24.10;77.00;;;-142.21;100.00;112049.66;5051189;28;20192;-75
2022/08/31 01:29:14;;;;;;;4.73;4.23;;;24.10;76.10;;;-142.21;100.00;112049.66;5051153;28;20251;-75
2022/08/31 01:31:45;;;;;;;4.80;4.30;;;24.10;75.60;;;-142.21;100.00;112049.66;5051605;28;20230;-76
2022/08/31 01:34:13;;;;;;;5.63;4.50;;;24.10;76.50;;;-142.21;100.00;112049.66;5049738;28;20416;-76
2022/08/31 01:36:44;;;;;;;5.73;4.67;;;24.10;76.90;;;-142.21;100.00;112049.66;5051551;28;20239;-75
2022/08/31 01:39:12;;;;;;;4.90;4.33;;;24.10;76.70;;;-142.21;100.00;112049.66;5051171;28;20209;-75
2022/08/31 01:41:42;;;;;;;4.40;4.00;;;24.10;76.70;;;-142.21;100.00;112049.66;5051121;28;20247;-75
2022/08/31 01:44:11;;;;;;;4.77;4.37;;;24.10;76.70;;;-142.21;100.00;112049.66;5050755;28;20276;-75
2022/08/31 01:46:39;;;;;;;6.73;4.60;;;24.20;76.80;;;-142.21;100.00;112049.66;5051568;28;20287;-75
2022/08/31 01:49:06;;;;;;;4.90;4.23;;;24.20;76.70;;;-142.21;100.00;112049.66;5050944;28;20283;-75
2022/08/31 01:51:34;;;;;;;5.73;4.67;;;24.20;76.60;;;-142.21;100.00;112049.66;5051579;28;20544;-75
2022/08/31 01:54:02;;;;;;;5.23;4.40;;;24.20;77.60;;;-142.21;100.00;112049.66;5050716;28;20309;-75
2022/08/31 01:56:33;;;;;;;4.70;4.30;;;24.20;77.00;;;-142.21;100.00;112049.66;5051092;28;20288;-75
2022/08/31 01:59:03;;;;;;;6.03;3.93;;;24.20;77.20;;;-142.21;100.00;112049.66;5047863;28;20232;-76
2022/08/31 02:01:35;;;;;;;5.27;4.30;;;24.10;76.50;;;-142.21;100.00;112049.66;5016507;28;20304;-77
2022/08/31 02:04:07;;;;;;;4.67;4.27;;;24.20;76.90;;;-142.21;100.00;112049.66;5050830;28;20276;-75
2022/08/31 02:06:40;;;;;;;5.77;4.40;;;24.10;77.00;;;-142.21;100.00;112049.66;5051401;28;20262;-75
2022/08/31 02:09:08;;;;;;;4.60;4.20;;;24.10;77.50;;;-142.21;100.00;112049.66;5050304;28;20205;-75
2022/08/31 02:11:35;;;;;;;4.87;4.13;;;24.10;77.00;;;-142.21;100.00;112049.66;5049516;28;20286;-74
2022/08/31 02:14:06;;;;;;;4.93;4.43;;;24.10;76.80;;;-142.21;100.00;112049.66;5050179;28;20312;-76
2022/08/31 02:16:34;;;;;;;5.70;4.77;;;24.10;77.30;;;-142.21;100.00;112049.66;5050595;28;20290;-74
2022/08/31 02:19:04;;;;;;;5.80;5.20;;;24.20;77.00;;;-142.21;100.00;112049.66;5050790;28;20248;-75
2022/08/31 02:21:33;;;;;;;5.00;4.50;;;24.10;76.80;;;-142.21;100.00;112049.66;5053539;28;20314;-75
2022/08/31 02:24:00;;;;;;;4.60;4.20;;;24.10;76.70;;;-142.21;100.00;112049.66;5054089;28;20208;-75
2022/08/31 02:26:28;;;;;;;6.03;4.53;;;24.10;77.20;;;-142.21;100.00;112049.66;5054665;28;20243;-76
2022/08/31 02:28:55;;;;;;;5.97;4.50;;;24.10;77.20;;;-142.21;100.00;112049.66;5054709;28;20242;-74
2022/08/31 02:31:24;;;;;;;5.80;4.57;;;24.10;77.20;;;-142.21;100.00;112049.66;5054037;28;20300;-74
2022/08/31 02:33:51;;;;;;;5.50;4.53;;;24.10;77.20;;;-142.21;100.00;112049.66;5054140;28;20772;-76
2022/08/31 02:36:18;;;;;;;5.17;4.67;;;24.10;77.20;;;-142.21;100.00;112049.66;5053918;28;20229;-75
2022/08/31 02:38:45;;;;;;;8.10;5.20;;;24.10;77.30;;;-142.21;100.00;112049.66;5054279;28;20289;-75
2022/08/31 02:41:13;;;;;;;4.63;4.23;;;24.10;77.20;;;-142.21;100.00;112049.66;5052876;28;20239;-75
2022/08/31 02:43:40;;;;;;;6.17;5.40;;;24.00;77.10;;;-142.21;100.00;112049.66;5054304;28;20598;-75
2022/08/31 02:46:07;;;;;;;6.33;5.33;;;24.00;77.20;;;-142.21;100.00;112049.66;5053518;28;20251;-74
2022/08/31 02:48:36;;;;;;;6.13;4.90;;;24.00;77.20;;;-142.21;100.00;112049.66;5054371;28;20542;-75
2022/08/31 02:51:10;;;;;;;6.00;5.43;;;24.00;78.20;;;-142.21;100.00;112049.66;5053632;28;20391;-75
2022/08/31 02:53:39;;;;;;;5.80;5.10;;;24.00;77.40;;;-142.21;100.00;112049.66;5020436;28;20254;-74
2022/08/31 02:56:07;;;;;;;6.47;5.23;;;24.00;77.70;;;-142.21;100.00;112049.66;5053357;28;20284;-74
2022/08/31 02:58:41;;;;;;;6.60;5.93;;;24.00;77.70;;;-142.21;100.00;112049.66;5052358;28;20229;-77
2022/08/31 03:01:09;;;;;;;6.10;5.43;;;23.90;78.80;;;-142.21;100.00;112049.66;5053517;28;20216;-77
2022/08/31 03:03:38;;;;;;;6.10;5.40;;;23.90;77.40;;;-142.21;100.00;112049.66;5053855;28;20206;-75
2022/08/31 03:06:06;;;;;;;6.27;5.67;;;23.90;77.80;;;-142.21;100.00;112049.66;5040194;28;20603;-75
2022/08/31 03:08:33;;;;;;;7.37;5.57;;;23.90;78.60;;;-142.21;100.00;112049.66;5053737;28;20685;-75
2022/08/31 03:11:01;;;;;;;7.47;6.03;;;23.90;78.00;;;-142.21;100.00;112049.66;5053732;28;20255;-77
2022/08/31 03:13:29;;;;;;;7.57;5.87;;;23.90;77.70;;;-142.21;100.00;112049.66;5053287;28;20752;-75
2022/08/31 03:15:56;;;;;;;7.13;5.57;;;23.90;78.00;;;-142.21;100.00;112049.66;5052283;28;20208;-75
2022/08/31 03:18:23;;;;;;;6.07;5.40;;;23.90;77.90;;;-142.21;100.00;112049.66;5053593;28;20205;-75
2022/08/31 03:20:52;;;;;;;7.33;5.50;;;23.90;78.00;;;-142.21;100.00;112049.66;5053385;28;20204;-75
2022/08/31 03:23:19;;;;;;;6.03;5.43;;;23.80;78.20;;;-142.21;100.00;112049.66;5052655;28;20717;-75
2022/08/31 03:25:46;;;;;;;6.33;5.70;;;23.80;78.00;;;-142.21;100.00;112049.66;5052936;28;20289;-75
2022/08/31 03:28:14;;;;;;;7.23;6.53;;;23.80;78.80;;;-142.21;100.00;112049.66;5054102;28;20311;-76
2022/08/31 03:30:42;;;;;;;7.00;6.03;;;23.80;79.10;;;-142.21;100.00;112049.66;5053397;28;20658;-74
2022/08/31 03:33:10;;;;;;;6.93;6.27;;;23.80;78.50;;;-142.21;100.00;112049.66;5051992;28;20208;-75
2022/08/31 03:35:37;;;;;;;6.33;5.73;;;23.80;78.40;;;-142.21;100.00;112049.66;5051697;28;20212;-77
2022/08/31 03:38:07;;;;;;;7.17;5.20;;;23.80;78.50;;;-142.21;100.00;112049.66;5052837;28;20234;-75
2022/08/31 03:40:35;;;;;;;6.30;5.70;;;23.80;79.40;;;-142.21;100.00;112049.66;5053681;28;20241;-76
2022/08/31 03:43:03;;;;;;;6.03;5.47;;;23.80;78.50;;;-142.21;100.00;112049.66;5053439;28;20201;-75
2022/08/31 03:45:33;;;;;;;6.43;5.70;;;23.80;78.50;;;-142.21;100.00;112049.66;5051998;28;20251;-76
2022/08/31 03:48:05;;;;;;;6.20;5.27;;;23.80;78.50;;;-142.21;100.00;112049.66;5053004;28;20603;-76
2022/08/31 03:50:32;;;;;;;6.07;5.23;;;23.70;78.30;;;-142.21;100.00;112049.66;5053251;28;20280;-76
2022/08/31 03:53:02;;;;;;;6.97;5.60;;;23.80;78.50;;;-142.21;100.00;112049.66;5052745;28;20700;-76
2022/08/31 03:55:33;;;;;;;6.50;5.80;;;23.70;78.80;;;-142.21;100.00;112049.66;5050953;28;20209;-76
2022/08/31 03:58:01;;;;;;;6.40;5.67;;;23.70;79.10;;;-142.21;100.00;112049.66;5052778;28;20654;-78
2022/08/31 04:00:31;;;;;;;7.53;5.60;;;23.70;78.90;;;-142.21;100.00;112049.66;5051922;28;20206;-78
2022/08/31 04:02:58;;;;;;;7.90;5.70;;;23.70;78.90;;;-142.21;100.00;112049.66;5052807;28;20205;-75
2022/08/31 04:05:26;;;;;;;6.43;5.80;;;23.70;79.10;;;-142.21;100.00;112049.66;5051873;28;20259;-76
2022/08/31 04:07:54;;;;;;;7.23;5.60;;;23.70;79.00;;;-142.21;100.00;112049.66;5052411;28;20255;-76
2022/08/31 04:10:21;;;;;;;7.60;6.37;;;23.70;79.20;;;-142.21;100.00;112049.66;5041455;28;20200;-74
2022/08/31 04:12:50;;;;;;;6.70;6.10;;;23.70;79.20;;;-142.21;100.00;112049.66;5052382;28;20208;-74
2022/08/31 04:15:18;;;;;;;7.07;5.67;;;23.70;79.40;;;-142.21;100.00;112049.66;5051660;28;20237;-77
2022/08/31 04:17:46;;;;;;;7.23;5.77;;;23.70;79.30;;;-142.21;100.00;112049.66;5051843;28;20247;-77
2022/08/31 04:20:14;;;;;;;6.13;5.50;;;23.70;79.40;;;-142.21;100.00;112049.66;5051868;28;20288;-74
2022/08/31 04:22:42;;;;;;;6.43;5.73;;;23.70;79.40;;;-142.21;100.00;112049.66;5051055;28;20288;-74
2022/08/31 04:25:09;;;;;;;9.23;5.80;;;23.70;79.20;;;-142.21;100.00;112049.66;5050177;28;20288;-78
2022/08/31 04:27:38;;;;;;;6.60;5.87;;;23.70;80.00;;;-142.21;100.00;112049.66;5052163;28;20287;-76
2022/08/31 04:30:09;;;;;;;6.80;6.07;;;23.70;79.40;;;-142.21;100.00;112049.66;5047957;28;20205;-78
2022/08/31 04:32:37;;;;;;;8.67;6.00;;;23.70;79.80;;;-142.21;100.00;112049.66;5052525;28;20561;-78
2022/08/31 04:35:07;;;;;;;8.40;6.33;;;23.70;79.40;;;-142.21;100.00;112049.66;5052186;28;20251;-78
2022/08/31 04:37:34;;;;;;;6.30;5.60;;;23.70;79.40;;;-142.21;100.00;112049.66;5051844;28;20219;-76
2022/08/31 04:40:02;;;;;;;7.23;6.10;;;23.70;79.10;;;-142.21;100.00;112049.66;5051503;28;20291;-77
2022/08/31 04:42:30;;;;;;;6.67;5.73;;;23.70;79.20;;;-142.21;100.00;112049.66;5051745;28;20209;-76
2022/08/31 04:44:58;;;;;;;6.87;6.17;;;23.70;79.40;;;-142.21;100.00;112049.66;5051395;28;20224;-76
2022/08/31 04:47:26;;;;;;;6.57;5.93;;;23.70;79.30;;;-142.21;100.00;112049.66;5051380;28;20714;-75
2022/08/31 04:49:54;;;;;;;6.97;6.10;;;23.70;79.50;;;-142.21;100.00;112049.66;5051697;28;20287;-74
2022/08/31 04:52:21;;;;;;;6.77;5.53;;;23.70;79.50;;;-142.21;100.00;112049.66;5050469;28;20225;-78
2022/08/31 04:54:48;;;;;;;7.33;5.93;;;23.70;79.40;;;-142.21;100.00;112049.66;5050948;28;20259;-75
2022/08/31 04:57:15;;;;;;;7.23;6.57;;;23.70;79.30;;;-142.21;100.00;112049.66;5050370;28;20289;-76
2022/08/31 04:59:42;;;;;;;7.30;6.37;;;23.80;79.40;;;-142.21;100.00;112049.66;5051822;28;20288;-76
2022/08/31 05:02:09;;;;;;;6.53;5.93;;;23.70;79.30;;;-142.21;100.00;112049.66;5051478;28;20208;-77
2022/08/31 05:04:38;;;;;;;6.13;5.53;;;23.70;79.40;;;-142.21;100.00;112049.66;5051808;28;20198;-78
2022/08/31 05:07:05;;;;;;;7.67;6.20;;;23.80;79.50;;;-142.21;100.00;112049.66;5051935;28;20289;-77
2022/08/31 05:09:32;;;;;;;8.60;6.90;;;23.70;79.30;;;-142.21;100.00;112049.66;5049823;28;20278;-77
2022/08/31 05:12:00;;;;;;;6.93;6.23;;;23.70;79.40;;;-142.21;100.00;112049.66;5052201;28;20618;-77
2022/08/31 05:14:27;;;;;;;8.37;6.53;;;23.70;79.40;;;-142.21;100.00;112049.66;5051098;28;20284;-77
2022/08/31 05:16:54;;;;;;;6.70;6.10;;;23.70;79.50;;;-142.21;100.00;112049.66;5051615;28;20707;-77
2022/08/31 05:19:22;;;;;;;8.07;7.00;;;23.70;79.40;;;-142.21;100.00;112049.66;5050723;28;20264;-75
2022/08/31 05:21:50;;;;;;;8.33;6.80;;;23.70;79.40;;;-142.21;100.00;112049.66;5052056;28;20271;-77
2022/08/31 05:24:21;;;;;;;6.60;6.00;;;23.70;79.70;;;-142.21;100.00;112049.66;5050533;28;20200;-76
2022/08/31 05:26:52;;;;;;;7.10;6.37;;;23.70;79.80;;;-142.21;100.00;112049.66;5050610;28;20549;-77
2022/08/31 05:29:22;;;;;;;7.70;6.83;;;23.70;79.70;;;-142.21;100.00;112049.66;5051062;28;20229;-79
2022/08/31 05:31:50;;;;;;;6.93;6.20;;;23.70;80.20;;;-142.21;100.00;112049.66;5051313;28;20632;-79
2022/08/31 05:34:18;;;;;;;7.77;6.60;;;23.60;79.70;;;-142.21;100.00;112049.66;5050473;28;20224;-80
2022/08/31 05:36:51;;;;;;;8.47;6.23;;;23.70;80.20;;;-142.21;100.00;112049.66;5051267;28;20670;-79
2022/08/31 05:39:20;;;;;;;11.00;7.10;;;23.70;80.30;;;-142.21;100.00;112049.66;5052814;28;20733;-77
2022/08/31 05:41:47;;;;;;;7.00;6.30;;;23.70;80.10;;;-142.21;100.00;112049.66;5062683;28;20512;-78
2022/08/31 05:44:16;;;;;;;9.00;6.20;;;23.70;79.80;;;-142.21;100.00;112049.66;5069868;28;20241;-77
2022/08/31 05:46:44;;;;;;;8.30;7.03;;;23.70;79.40;;;-142.21;100.00;112049.66;5051316;28;20205;-76
2022/08/31 05:49:12;;;;;;;8.57;6.50;;;23.70;79.40;;;-142.21;100.00;112049.66;5050999;28;20198;-76
2022/08/31 05:51:40;;;;;;;9.83;7.30;;;23.70;79.30;;;-142.21;100.00;112049.66;5051280;28;20208;-79
2022/08/31 05:54:10;;;;;;;9.67;6.93;;;23.70;79.60;;;-142.21;100.00;112049.66;5044093;28;20230;-79
2022/08/31 05:56:40;;;;;;;7.37;6.40;;;23.70;79.70;;;-142.21;100.00;112049.66;5050942;28;20201;-79
2022/08/31 05:59:08;;;;;;;8.17;6.73;;;23.70;79.60;;;-142.21;100.00;112049.66;5037531;28;20226;-80
2022/08/31 06:01:39;;;;;;;7.67;6.93;;;23.70;79.10;;;-142.21;100.00;112049.66;5034620;28;20220;-79
2022/08/31 06:04:07;;;;;;;8.33;7.10;;;23.70;79.40;;;-142.21;100.00;112049.66;5057616;28;20650;-77
2022/08/31 06:06:35;;;;;;;7.87;7.03;;;23.70;79.60;;;-142.21;100.00;112049.66;5054398;28;20606;-80
2022/08/31 06:09:05;;;;;;;8.83;7.03;;;23.60;79.20;;;-142.21;100.00;112049.66;5054173;28;20193;-78
2022/08/31 06:11:34;;;;;;;9.33;7.07;;;23.60;79.30;;;-142.21;100.00;112049.66;5054517;28;20262;-78
2022/08/31 06:14:04;;;;;;;8.33;7.50;;;23.60;79.20;;;-142.21;100.00;112049.66;5035521;28;20212;-79
2022/08/31 06:16:32;;;;;;;8.63;6.80;;;23.60;79.20;;;-142.21;100.00;112049.66;5040212;28;20192;-79
2022/08/31 06:19:02;;;;;;;10.00;7.80;;;23.50;79.30;;;-142.21;100.00;112049.66;5035212;28;20211;-77
2022/08/31 06:21:34;;;;;;;10.13;7.20;;;23.50;79.80;;;-142.21;100.00;112049.66;5039161;28;20264;-78
2022/08/31 06:24:06;;;;;;;9.77;7.27;;;23.50;80.20;;;-142.21;100.00;112049.66;5073094;28;20616;-77
2022/08/31 06:26:36;;;;;;;8.87;7.23;;;23.60;80.80;;;-142.21;100.00;112049.66;5053151;28;20675;-79
2022/08/31 06:29:08;;;;;;;8.93;7.10;;;23.50;80.70;;;-142.21;100.00;112049.66;5054102;28;20200;-77
2022/08/31 06:31:45;;;;;;;10.73;7.73;;;23.50;80.50;;;-142.21;100.00;112049.66;5036089;28;20308;-78
2022/08/31 06:34:15;;;;;;;7.73;6.73;;;23.60;80.70;;;-142.21;100.00;112049.66;5054466;28;20277;-78
2022/08/31 06:36:42;;;;;;;8.80;7.50;;;23.50;80.50;;;-142.21;100.00;112049.66;5054580;28;20208;-78
2022/08/31 06:39:11;;;;;;;10.30;7.80;;;23.60;80.70;;;-142.21;100.00;112049.66;5054806;28;20222;-78
2022/08/31 06:41:41;;;;;;;8.77;7.47;;;23.50;80.50;;;-142.21;100.00;112049.66;5054329;28;20209;-79
2022/08/31 06:44:12;;;;;;;7.37;6.67;;;23.60;81.20;;;-142.21;100.00;112049.66;5055200;28;20213;-79
2022/08/31 06:46:40;;;;;;;8.40;7.60;;;23.60;81.10;;;-142.21;100.00;112049.66;5054064;28;20247;-79
2022/08/31 06:49:09;;;;;;;8.57;7.53;;;23.60;80.70;;;-142.21;100.00;112049.66;5054142;28;20292;-79
2022/08/31 06:51:37;;;;;;;8.60;7.03;;;23.40;81.00;;;-142.21;100.00;112049.66;5053755;28;20218;-79
2022/08/31 06:54:07;;;;;;;7.87;6.83;;;23.40;81.50;;;-142.21;100.00;112049.66;5054415;28;20202;-79
2022/08/31 06:56:36;;;;;;;7.83;6.97;;;23.50;82.30;;;-142.21;100.00;112049.66;5054026;28;20290;-79
2022/08/31 06:59:06;;;;;;;7.97;7.17;;;23.50;82.20;;;-142.21;100.00;112049.66;5054136;28;20245;-79
2022/08/31 07:01:36;;;;;;;10.17;8.10;;;23.60;82.60;;;-142.21;100.00;112049.66;5052056;28;20196;-79
2022/08/31 07:04:06;;;;;;;10.90;8.50;;;23.70;82.00;;;-142.21;100.00;112049.66;5053060;28;20254;-79
2022/08/31 07:06:39;;;;;;;8.20;7.17;;;23.70;82.00;;;-142.21;100.00;112049.66;5052613;28;20196;-79
2022/08/31 07:09:11;;;;;;;8.70;7.20;;;23.80;83.30;;;-142.21;100.00;112049.66;5053961;28;20260;-79
2022/08/31 07:11:43;;;;;;;8.77;7.00;;;23.80;81.20;;;-142.21;100.00;112049.66;5053568;28;20570;-79
2022/08/31 07:14:14;;;;;;;9.77;7.27;;;23.80;80.80;;;-142.21;100.00;112049.66;5034079;28;20195;-79
2022/08/31 07:16:43;;;;;;;8.40;7.50;;;23.80;80.90;;;-142.21;100.00;112049.66;5033301;28;20190;-79
2022/08/31 07:19:13;;;;;;;8.83;7.47;;;23.80;81.40;;;-142.21;100.00;112049.66;5033759;28;20209;-78
2022/08/31 07:21:43;;;;;;;8.33;6.90;;;23.90;82.00;;;-142.21;100.00;112049.66;5033760;28;20577;-78
2022/08/31 07:24:13;;;;;;;8.07;7.27;;;23.90;82.00;;;-142.21;100.00;112049.66;5033608;28;20249;-79
2022/08/31 07:26:43;;;;;;;8.07;7.27;;;24.00;81.70;;;-142.21;100.00;112049.66;5033045;28;20190;-79
2022/08/31 07:29:16;;;;;;;8.80;7.90;;;24.00;81.60;;;-142.21;100.00;112049.66;5033618;28;20342;-80
2022/08/31 07:31:45;;;;;;;8.43;7.17;;;24.10;82.10;;;-142.21;100.00;112049.66;5032848;28;20193;-80
2022/08/31 07:34:14;;;;;;;9.67;8.27;;;24.00;82.00;;;-142.21;100.00;112049.66;5033838;28;20232;-79
2022/08/31 07:42:09;;;;;;;7.97;7.17;;;24.10;81.90;;;-142.21;100.00;112049.66;5033423;28;20197;-80
2022/08/31 07:44:41;;;;;;;9.00;7.87;;;24.10;81.90;;;-142.21;100.00;112049.66;5032532;28;20223;-79
2022/08/31 07:47:11;;;;;;;11.70;7.40;;;24.10;81.80;;;-142.21;100.00;112049.66;5033639;28;20197;-79
2022/08/31 07:49:43;;;;;;;10.67;7.87;;;24.10;81.60;;;-142.21;100.00;112049.66;5032898;28;20210;-79
2022/08/31 07:52:11;;;;;;;10.83;8.03;;;24.10;81.60;;;-142.21;100.00;112049.66;5033181;28;20644;-79
2022/08/31 07:54:38;;;;;;;8.77;7.50;;;24.10;81.60;;;-142.21;100.00;112049.66;5032458;28;20700;-79
2022/08/31 07:57:06;;;;;;;8.23;7.03;;;24.20;81.60;;;-142.21;100.00;112049.66;5032890;28;20220;-79
2022/08/31 07:59:36;;;;;;;11.27;7.93;;;24.20;81.50;;;-142.21;100.00;112049.66;5032652;28;20599;-79
2022/08/31 08:02:05;;;;;;;8.77;7.80;;;24.20;81.40;;;-142.21;100.00;112049.66;5032892;28;20206;-79
2022/08/31 08:04:37;;;;;;;9.83;7.73;;;24.30;81.40;;;-142.21;100.00;112049.66;5032444;28;20206;-79
2022/08/31 08:07:05;;;;;;;8.23;6.83;;;24.30;81.00;;;-142.21;100.00;112049.66;5033043;28;20191;-80
2022/08/31 08:09:33;;;;;;;9.53;7.37;;;24.30;80.70;;;-142.21;100.00;112049.66;5032318;28;20682;-80
2022/08/31 08:12:06;;;;;;;8.53;7.60;;;24.30;80.80;;;-142.21;100.00;112049.66;5035504;28;20670;-79
2022/08/31 08:14:35;;;;;;;9.50;8.37;;;24.40;81.00;;;-142.21;100.00;112049.66;5052338;28;20558;-79
2022/08/31 08:17:04;;;;;;;9.87;8.37;;;24.40;80.70;;;-142.21;100.00;112049.66;5051303;28;20295;-79
2022/08/31 08:19:33;;;;;;;9.13;8.00;;;24.40;80.60;;;-142.21;100.00;112049.66;5050990;28;20212;-79
2022/08/31 08:22:01;;;;;;;9.63;7.87;;;24.40;80.50;;;-142.21;100.00;112049.66;5052474;28;20210;-79
2022/08/31 08:24:30;;;;;;;9.23;8.33;;;24.40;80.60;;;-142.21;100.00;112049.66;5051843;28;20209;-80
2022/08/31 08:26:58;;;;;;;9.27;8.27;;;24.40;80.70;;;-142.21;100.00;112049.66;5052479;28;20260;-79
2022/08/31 08:29:25;;;;;;;8.97;8.07;;;24.40;80.40;;;-142.21;100.00;112049.66;5051774;28;20254;-79
2022/08/31 08:31:53;;;;;;;10.10;7.90;;;24.50;80.40;;;-142.21;100.00;112049.66;5052205;28;20209;-79
2022/08/31 08:34:24;;;;;;;8.67;7.77;;;24.50;80.20;;;-142.21;100.00;112049.66;5052249;28;20208;-79
2022/08/31 08:36:52;;;;;;;9.77;8.17;;;24.50;80.50;;;-142.21;100.00;112049.66;5052121;28;20254;-79
2022/08/31 08:39:23;;;;;;;8.67;7.77;;;24.60;80.20;;;-142.21;100.00;112049.66;5052114;28;20243;-79
2022/08/31 08:41:57;;;;;;;8.47;7.07;;;24.70;80.40;;;-142.21;100.00;112049.66;5051787;28;20190;-79
2022/08/31 08:44:31;;;;;;;8.67;7.20;;;24.80;80.80;;;-142.21;100.00;112049.66;5051634;28;20220;-80
2022/08/31 08:47:03;;;;;;;7.43;6.63;;;24.80;80.10;;;-142.21;100.00;112049.66;5052373;28;20193;-79
2022/08/31 08:49:45;;;;;;;9.17;6.87;;;24.90;79.80;;;-142.21;100.00;112049.66;5051519;28;20277;-79
2022/08/31 08:52:25;;;;;;;8.87;6.50;;;24.90;79.90;;;-142.21;100.00;112049.66;5052284;28;20185;-80
2022/08/31 08:54:56;;;;;;;7.23;6.53;;;25.00;79.10;;;-142.21;100.00;112049.66;5051891;28;20189;-78
2022/08/31 08:57:27;;;;;;;7.80;7.00;;;25.00;79.80;;;-142.21;100.00;112049.66;5051903;28;20186;-79
2022/08/31 08:59:58;;;;;;;8.43;7.63;;;25.10;79.40;;;-142.21;100.00;112049.66;5051840;28;20197;-79
2022/08/31 09:02:36;;;;;;;8.47;7.53;;;25.10;79.30;;;-142.21;100.00;112049.66;5051906;28;20200;-79
2022/08/31 09:05:41;;;;;;;8.87;7.97;;;25.10;79.50;;;-142.21;100.00;112049.66;5051758;28;20248;-79
2022/08/31 09:08:42;;;;;;;8.27;7.17;;;25.10;80.00;;;-142.21;100.00;112049.66;5052034;28;20610;-78
2022/08/31 09:11:18;;;;;;;8.07;7.27;;;25.10;78.50;;;-142.21;100.00;112049.66;5019005;28;20214;-78
2022/08/31 09:14:08;;;;;;;7.03;6.33;;;25.00;78.20;;;-142.21;100.00;112049.66;5051140;28;20221;-78
2022/08/31 09:16:51;;;;;;;7.43;6.10;;;25.00;78.10;;;-142.21;100.00;112049.66;5051299;28;20213;-80
2022/08/31 09:19:20;;;;;;;5.90;5.40;;;24.90;77.70;;;-142.21;100.00;112049.66;5051765;28;20194;-77
2022/08/31 09:21:54;;;;;;;6.47;5.03;;;24.90;76.20;;;-142.21;100.00;112049.66;5051043;28;20208;-79
2022/08/31 09:24:25;;;;;;;7.07;5.00;;;24.80;75.40;;;-142.21;100.00;112049.66;5052012;28;20520;-79
2022/08/31 09:27:16;;;;;;;8.93;5.20;;;24.70;75.10;;;-142.21;100.00;112049.66;5051666;28;20190;-79
2022/08/31 09:29:45;;;;;;;7.00;5.47;;;24.60;74.50;;;-142.21;100.00;112049.66;5052790;28;20194;-79
2022/08/31 09:32:22;;;;;;;8.63;5.37;;;24.50;75.00;;;-142.21;100.00;112049.66;5055946;28;20251;-79
2022/08/31 09:34:59;;;;;;;9.03;5.20;;;24.40;74.90;;;-142.21;100.00;112049.66;5055447;28;20283;-79
2022/08/31 09:37:36;;;;;;;5.87;5.27;;;24.40;76.00;;;-142.21;100.00;112049.66;5055926;28;20209;-78
2022/08/31 09:40:17;;;;;;;6.37;5.63;;;24.30;76.20;;;-142.21;100.00;112049.66;5055915;28;20220;-79
2022/08/31 09:43:03;;;;;;;8.87;5.50;;;24.20;76.60;;;-142.21;100.00;112049.66;5054889;28;20247;-79
2022/08/31 09:45:34;;;;;;;7.17;5.90;;;24.10;76.50;;;-142.21;100.00;112049.66;5055223;28;20563;-78
2022/08/31 09:48:02;;;;;;;6.43;5.63;;;24.10;76.60;;;-142.21;100.00;112049.66;5055771;28;20219;-79
2022/08/31 09:50:36;;;;;;;7.47;6.00;;;24.10;76.90;;;-142.21;100.00;112049.66;5055136;28;20209;-79
2022/08/31 09:56:14;;;;;;;7.37;5.50;;;24.00;76.30;;;-142.21;100.00;112049.66;5055428;28;20262;-80
2022/08/31 09:58:45;;;;;;;7.03;5.40;;;24.00;76.20;;;-142.21;100.00;112049.66;5054627;28;20632;-78
2022/08/31 10:01:21;;;;;;;7.00;5.60;;;23.90;75.80;;;-142.21;100.00;112049.66;5055596;28;20222;-79
2022/08/31 10:03:49;;;;;;;5.97;5.40;;;23.90;75.70;;;-142.21;100.00;112049.66;5054588;28;20203;-78
2022/08/31 10:06:45;;;;;;;7.70;5.63;;;23.90;76.00;;;-142.21;100.00;112049.66;5055148;28;20259;-78
2022/08/31 10:09:24;;;;;;;6.30;5.37;;;23.90;76.60;;;-142.21;100.00;112049.66;5055516;28;20237;-77
2022/08/31 10:11:58;;;;;;;6.43;5.27;;;23.80;76.90;;;-142.21;100.00;112049.66;5054608;28;20554;-79
2022/08/31 10:14:35;;;;;;;6.37;5.67;;;23.80;76.50;;;-142.21;100.00;112049.66;5055192;28;20238;-78
2022/08/31 10:17:13;;;;;;;7.67;6.13;;;23.80;76.80;;;-142.21;100.00;112049.66;5054814;28;20212;-80